createdAt,value
2018-08-20T00:01:37.203Z,22.30
2018-08-20T00:04:09.399Z,22.30
2018-08-20T00:06:51.108Z,22.30
2018-08-20T00:09:21.370Z,22.30
2018-08-20T00:11:51.590Z,22.30
2018-08-20T00:14:22.072Z,22.20
2018-08-20T00:16:50.797Z,22.30
2018-08-20T00:19:19.370Z,22.30
2018-08-20T00:21:48.009Z,22.30
2018-08-20T00:24:16.529Z,22.30
2018-08-20T00:26:45.126Z,22.30
2018-08-20T00:29:13.623Z,22.30
2018-08-20T00:31:42.294Z,22.30
2018-08-20T00:34:10.869Z,22.20
2018-08-20T00:36:39.431Z,22.20
2018-08-20T00:39:09.987Z,22.20
2018-08-20T00:41:38.894Z,22.10
2018-08-20T00:44:12.115Z,22.10
2018-08-20T00:46:41.473Z,22.10
2018-08-20T00:49:10.054Z,22.10
2018-08-20T00:51:38.594Z,22.00
2018-08-20T00:54:07.238Z,22.00
2018-08-20T00:56:36.078Z,22.00
2018-08-20T00:59:04.683Z,22.00
2018-08-20T01:01:33.948Z,22.00
2018-08-20T01:04:03.374Z,21.90
2018-08-20T01:06:32.443Z,21.90
2018-08-20T01:09:01.012Z,21.90
2018-08-20T01:11:29.589Z,21.90
2018-08-20T01:13:58.211Z,21.90
2018-08-20T01:16:27.524Z,21.90
2018-08-20T01:18:56.232Z,21.90
2018-08-20T01:21:24.898Z,21.90
2018-08-20T01:23:53.487Z,21.80
2018-08-20T01:26:21.978Z,21.80
2018-08-20T01:28:50.526Z,21.80
2018-08-20T01:31:19.001Z,21.80
2018-08-20T01:33:47.473Z,21.80
2018-08-20T01:36:15.993Z,21.80
2018-08-20T01:38:44.495Z,21.80
2018-08-20T01:41:13.796Z,21.80
2018-08-20T01:43:43.058Z,21.80
2018-08-20T01:46:11.590Z,21.80
2018-08-20T01:48:40.058Z,21.80
2018-08-20T01:51:08.619Z,21.80
2018-08-20T01:53:37.125Z,21.90
2018-08-20T01:56:05.631Z,21.90
2018-08-20T01:58:34.409Z,21.80
2018-08-20T02:01:03.000Z,21.80
2018-08-20T02:03:32.237Z,21.80
2018-08-20T02:06:00.804Z,21.80
2018-08-20T02:08:29.452Z,21.80
2018-08-20T02:10:58.053Z,21.80
2018-08-20T02:13:26.542Z,21.70
2018-08-20T02:15:55.033Z,21.70
2018-08-20T02:18:23.554Z,21.70
2018-08-20T02:20:52.319Z,21.70
2018-08-20T02:23:21.275Z,21.70
2018-08-20T02:25:49.754Z,21.70
2018-08-20T02:28:18.435Z,21.60
2018-08-20T02:30:46.906Z,21.60
2018-08-20T02:33:15.486Z,21.60
2018-08-20T02:35:43.999Z,21.60
2018-08-20T02:38:12.577Z,21.60
2018-08-20T02:40:41.146Z,21.60
2018-08-20T02:43:09.748Z,21.60
2018-08-20T02:45:38.261Z,21.60
2018-08-20T02:48:08.595Z,21.50
2018-08-20T02:50:37.145Z,21.50
2018-08-20T02:53:06.138Z,21.50
2018-08-20T02:55:34.606Z,21.50
2018-08-20T02:58:03.288Z,21.50
2018-08-20T03:00:31.833Z,21.50
2018-08-20T03:03:03.768Z,21.50
2018-08-20T03:05:33.326Z,21.40
2018-08-20T03:08:02.320Z,21.40
2018-08-20T03:10:30.844Z,21.40
2018-08-20T03:12:59.430Z,21.40
2018-08-20T03:15:27.924Z,21.40
2018-08-20T03:17:56.462Z,21.40
2018-08-20T03:20:25.122Z,21.30
2018-08-20T03:22:53.710Z,21.30
2018-08-20T03:25:22.232Z,21.30
2018-08-20T03:27:51.325Z,21.30
2018-08-20T03:30:19.946Z,21.30
2018-08-20T03:32:48.419Z,21.30
2018-08-20T03:35:16.981Z,21.30
2018-08-20T03:37:45.501Z,21.20
2018-08-20T03:40:14.205Z,21.20
2018-08-20T03:42:43.344Z,21.20
2018-08-20T03:45:12.130Z,21.20
2018-08-20T03:47:41.622Z,21.10
2018-08-20T03:50:13.275Z,21.10
2018-08-20T03:52:41.939Z,21.10
2018-08-20T03:55:10.483Z,21.10
2018-08-20T03:57:39.090Z,21.10
2018-08-20T04:00:09.530Z,21.10
2018-08-20T04:02:38.239Z,21.00
2018-08-20T04:05:06.822Z,21.00
2018-08-20T04:07:35.564Z,21.00
2018-08-20T04:10:04.197Z,21.00
2018-08-20T04:12:33.396Z,21.00
2018-08-20T04:15:01.883Z,21.00
2018-08-20T04:17:30.392Z,21.00
2018-08-20T04:19:58.923Z,20.90
2018-08-20T04:22:27.398Z,20.90
2018-08-20T04:24:55.946Z,20.90
2018-08-20T04:27:24.436Z,20.90
2018-08-20T04:29:52.976Z,20.90
2018-08-20T04:32:21.448Z,21.00
2018-08-20T04:34:49.982Z,21.00
2018-08-20T04:37:18.512Z,21.00
2018-08-20T04:39:47.840Z,21.10
2018-08-20T04:42:16.493Z,21.20
2018-08-20T04:44:45.202Z,21.20
2018-08-20T04:47:14.066Z,21.30
2018-08-20T04:49:42.618Z,21.40
2018-08-20T04:52:11.120Z,21.50
2018-08-20T04:54:39.673Z,21.60
2018-08-20T04:57:08.189Z,21.70
2018-08-20T04:59:36.700Z,21.80
2018-08-20T05:02:05.284Z,21.80
2018-08-20T05:04:33.771Z,21.90
2018-08-20T05:07:02.378Z,22.10
2018-08-20T05:09:30.911Z,22.10
2018-08-20T05:11:59.529Z,22.20
2018-08-20T05:14:28.067Z,22.30
2018-08-20T05:16:56.608Z,22.40
2018-08-20T05:19:25.196Z,22.40
2018-08-20T05:21:53.686Z,22.50
2018-08-20T05:24:22.231Z,22.60
2018-08-20T05:26:50.755Z,22.60
2018-08-20T05:29:19.476Z,22.70
2018-08-20T05:31:47.997Z,22.80
2018-08-20T05:34:16.494Z,22.80
2018-08-20T05:36:45.015Z,22.90
2018-08-20T05:39:13.581Z,23.00
2018-08-20T05:41:42.070Z,23.00
2018-08-20T05:44:10.640Z,23.10
2018-08-20T05:46:39.211Z,23.10
2018-08-20T05:49:07.794Z,23.20
2018-08-20T05:51:36.276Z,23.20
2018-08-20T05:54:04.920Z,23.30
2018-08-20T05:56:33.397Z,23.30
2018-08-20T05:59:02.257Z,23.40
2018-08-20T06:01:31.160Z,23.40
2018-08-20T06:03:59.692Z,23.50
2018-08-20T06:06:28.477Z,23.60
2018-08-20T06:08:57.034Z,23.70
2018-08-20T06:11:25.529Z,23.70
2018-08-20T06:13:54.091Z,23.80
2018-08-20T06:16:22.586Z,23.80
2018-08-20T06:18:51.685Z,23.80
2018-08-20T06:21:20.242Z,23.90
2018-08-20T06:23:48.923Z,23.90
2018-08-20T06:26:17.507Z,24.10
2018-08-20T06:28:46.035Z,24.10
2018-08-20T06:31:14.568Z,24.10
2018-08-20T06:33:43.088Z,24.20
2018-08-20T06:36:11.648Z,24.30
2018-08-20T06:38:40.178Z,24.40
2018-08-20T06:41:09.493Z,24.40
2018-08-20T06:43:38.030Z,24.50
2018-08-20T06:46:06.723Z,24.50
2018-08-20T06:48:35.826Z,24.60
2018-08-20T06:51:05.727Z,24.60
2018-08-20T06:53:34.243Z,24.80
2018-08-20T06:56:02.777Z,24.80
2018-08-20T06:58:31.285Z,24.80
2018-08-20T07:00:59.846Z,24.90
2018-08-20T07:03:28.398Z,24.90
2018-08-20T07:05:56.953Z,25.00
2018-08-20T07:08:25.718Z,25.00
2018-08-20T07:10:54.294Z,25.10
2018-08-20T07:13:36.308Z,25.10
2018-08-20T07:16:05.984Z,25.20
2018-08-20T07:18:34.628Z,25.30
2018-08-20T07:21:03.561Z,25.30
2018-08-20T07:23:32.341Z,25.40
2018-08-20T07:26:00.784Z,25.40
2018-08-20T07:28:31.159Z,25.50
2018-08-20T07:30:59.689Z,25.60
2018-08-20T07:33:28.267Z,25.60
2018-08-20T07:35:56.825Z,25.60
2018-08-20T07:38:25.442Z,25.60
2018-08-20T07:40:54.084Z,25.60
2018-08-20T07:43:22.590Z,25.70
2018-08-20T07:45:51.113Z,25.70
2018-08-20T07:48:19.692Z,25.80
2018-08-20T07:50:48.247Z,25.90
2018-08-20T07:53:16.854Z,25.90
2018-08-20T07:55:45.882Z,26.00
2018-08-20T07:58:14.736Z,26.00
2018-08-20T08:00:44.135Z,26.10
2018-08-20T08:03:12.709Z,26.20
2018-08-20T08:05:41.372Z,26.20
2018-08-20T08:08:09.999Z,26.30
2018-08-20T08:10:38.609Z,26.40
2018-08-20T08:13:07.229Z,26.40
2018-08-20T08:15:35.700Z,26.50
2018-08-20T08:18:04.332Z,26.60
2018-08-20T08:20:32.837Z,26.70
2018-08-20T08:23:01.432Z,26.70
2018-08-20T08:25:29.982Z,26.70
2018-08-20T08:27:58.543Z,26.70
2018-08-20T08:30:27.127Z,26.80
2018-08-20T08:32:55.675Z,26.80
2018-08-20T08:35:25.046Z,26.90
2018-08-20T08:37:53.640Z,26.90
2018-08-20T08:40:22.363Z,27.00
2018-08-20T08:42:50.827Z,27.10
2018-08-20T08:45:19.514Z,27.20
2018-08-20T08:47:48.049Z,27.30
2018-08-20T08:50:17.506Z,27.30
2018-08-20T08:52:46.675Z,27.40
2018-08-20T08:55:15.230Z,27.50
2018-08-20T08:57:43.750Z,27.50
2018-08-20T09:00:17.654Z,27.60
2018-08-20T09:02:46.428Z,27.60
2018-08-20T09:05:15.090Z,27.60
2018-08-20T09:07:44.154Z,27.60
2018-08-20T09:10:13.196Z,27.70
2018-08-20T09:12:41.934Z,27.70
2018-08-20T09:15:16.318Z,27.70
2018-08-20T09:17:45.241Z,27.80
2018-08-20T09:20:16.542Z,27.90
2018-08-20T09:22:46.062Z,27.90
2018-08-20T09:25:15.154Z,27.90
2018-08-20T09:27:44.895Z,27.90
2018-08-20T09:30:23.167Z,28.00
2018-08-20T09:32:51.834Z,28.00
2018-08-20T09:35:20.411Z,28.00
2018-08-20T09:37:48.984Z,28.10
2018-08-20T09:40:17.761Z,28.20
2018-08-20T09:42:46.452Z,28.20
2018-08-20T09:45:14.954Z,28.20
2018-08-20T09:47:44.177Z,28.20
2018-08-20T09:50:14.706Z,28.20
2018-08-20T09:52:43.613Z,28.30
2018-08-20T09:55:12.109Z,28.40
2018-08-20T09:57:41.000Z,28.30
2018-08-20T10:00:13.617Z,28.30
2018-08-20T10:02:42.844Z,28.30
2018-08-20T10:05:11.385Z,28.40
2018-08-20T10:07:40.164Z,28.50
2018-08-20T10:10:08.752Z,28.50
2018-08-20T10:12:37.441Z,28.40
2018-08-20T10:15:06.025Z,28.20
2018-08-20T10:17:35.059Z,28.00
2018-08-20T10:20:04.634Z,28.10
2018-08-20T10:22:33.162Z,28.10
2018-08-20T10:25:01.743Z,28.00
2018-08-20T10:27:30.230Z,28.20
2018-08-20T10:29:58.773Z,28.30
2018-08-20T10:32:27.297Z,28.40
2018-08-20T10:34:55.869Z,28.40
2018-08-20T10:37:24.602Z,28.60
2018-08-20T10:39:53.167Z,28.80
2018-08-20T10:42:21.793Z,29.00
2018-08-20T10:44:54.710Z,29.20
2018-08-20T10:47:23.553Z,29.10
2018-08-20T10:49:52.093Z,28.70
2018-08-20T10:52:20.600Z,28.40
2018-08-20T10:54:49.679Z,28.60
2018-08-20T10:57:18.516Z,28.70
2018-08-20T10:59:47.107Z,28.60
2018-08-20T11:02:15.619Z,28.70
2018-08-20T11:04:44.421Z,28.50
2018-08-20T11:07:13.000Z,28.80
2018-08-20T11:09:41.517Z,28.80
2018-08-20T11:12:10.132Z,28.90
2018-08-20T11:14:38.870Z,28.90
2018-08-20T11:17:07.511Z,29.10
2018-08-20T11:19:36.018Z,29.00
2018-08-20T11:22:04.603Z,29.00
2018-08-20T11:24:33.210Z,28.90
2018-08-20T11:27:01.837Z,28.80
2018-08-20T11:29:30.274Z,28.80
2018-08-20T11:31:58.954Z,28.70
2018-08-20T11:34:27.628Z,28.70
2018-08-20T11:36:56.311Z,28.60
2018-08-20T11:39:24.838Z,28.50
2018-08-20T11:41:53.345Z,28.70
2018-08-20T11:44:21.896Z,28.90
2018-08-20T11:46:50.486Z,29.10
2018-08-20T11:49:19.019Z,29.20
2018-08-20T11:51:47.510Z,29.10
2018-08-20T11:54:16.044Z,29.00
2018-08-20T11:56:44.798Z,28.90
2018-08-20T11:59:13.345Z,28.80
2018-08-20T12:01:41.833Z,28.70
2018-08-20T12:04:10.410Z,28.70
2018-08-20T12:06:38.928Z,28.90
2018-08-20T12:09:07.669Z,28.90
2018-08-20T12:11:36.392Z,28.90
2018-08-20T12:14:04.961Z,28.90
2018-08-20T12:16:33.509Z,28.90
2018-08-20T12:19:02.044Z,29.00
2018-08-20T12:21:30.536Z,29.00
2018-08-20T12:23:59.800Z,29.10
2018-08-20T12:26:28.307Z,29.10
2018-08-20T12:28:56.874Z,29.20
2018-08-20T12:31:25.416Z,29.10
2018-08-20T12:33:54.259Z,29.00
2018-08-20T12:36:22.797Z,28.80
2018-08-20T12:38:51.873Z,28.70
2018-08-20T12:41:20.586Z,28.60
2018-08-20T12:43:49.133Z,28.50
2018-08-20T12:46:19.745Z,28.50
2018-08-20T12:48:50.295Z,28.60
2018-08-20T12:51:20.367Z,28.30
2018-08-20T12:53:48.875Z,28.20
2018-08-20T12:56:17.815Z,28.20
2018-08-20T12:58:49.730Z,28.20
2018-08-20T13:01:18.674Z,28.10
2018-08-20T13:03:48.130Z,28.10
2018-08-20T13:06:16.883Z,28.30
2018-08-20T13:08:46.556Z,28.40
2018-08-20T13:11:15.635Z,28.80
2018-08-20T13:13:44.503Z,29.10
2018-08-20T13:16:13.217Z,29.50
2018-08-20T13:18:41.587Z,29.70
2018-08-20T13:21:10.158Z,29.80
2018-08-20T13:23:38.682Z,29.50
2018-08-20T13:26:07.338Z,30.60
2018-08-20T13:28:35.834Z,30.00
2018-08-20T13:31:04.619Z,29.80
2018-08-20T13:33:33.178Z,29.80
2018-08-20T13:36:01.753Z,29.60
2018-08-20T13:38:30.271Z,29.70
2018-08-20T13:40:58.848Z,29.70
2018-08-20T13:43:27.387Z,29.90
2018-08-20T13:45:56.015Z,29.90
2018-08-20T13:48:25.101Z,30.20
2018-08-20T13:50:54.771Z,30.40
2018-08-20T13:53:23.375Z,30.80
2018-08-20T13:55:51.979Z,31.70
2018-08-20T13:58:20.746Z,31.70
2018-08-20T14:00:49.363Z,31.60
2018-08-20T14:03:18.127Z,33.30
2018-08-20T14:05:46.709Z,33.90
2018-08-20T14:08:15.239Z,33.10
2018-08-20T14:10:43.802Z,32.50
2018-08-20T14:13:12.313Z,31.80
2018-08-20T14:15:40.890Z,31.70
2018-08-20T14:18:09.455Z,31.50
2018-08-20T14:20:38.028Z,31.10
2018-08-20T14:23:06.547Z,30.70
2018-08-20T14:25:35.098Z,30.30
2018-08-20T14:28:03.618Z,30.10
2018-08-20T14:30:32.225Z,30.00
2018-08-20T14:33:00.724Z,29.80
2018-08-20T14:35:29.277Z,29.70
2018-08-20T14:37:57.804Z,29.80
2018-08-20T14:40:26.434Z,29.80
2018-08-20T14:42:54.986Z,29.70
2018-08-20T14:45:23.632Z,29.70
2018-08-20T14:47:52.235Z,29.70
2018-08-20T14:50:20.817Z,29.60
2018-08-20T14:52:49.338Z,29.60
2018-08-20T14:55:17.915Z,29.60
2018-08-20T14:57:47.355Z,29.70
2018-08-20T15:00:16.062Z,29.70
2018-08-20T15:02:44.761Z,29.70
2018-08-20T15:05:13.310Z,29.80
2018-08-20T15:07:41.844Z,29.80
2018-08-20T15:10:10.400Z,29.80
2018-08-20T15:12:38.919Z,29.60
2018-08-20T15:15:08.606Z,29.40
2018-08-20T15:17:37.118Z,29.10
2018-08-20T15:20:07.153Z,28.90
2018-08-20T15:22:35.703Z,28.70
2018-08-20T15:25:04.554Z,28.60
2018-08-20T15:27:33.136Z,28.40
2018-08-20T15:30:02.751Z,28.30
2018-08-20T15:32:31.351Z,28.20
2018-08-20T15:34:59.909Z,28.20
2018-08-20T15:37:28.427Z,28.00
2018-08-20T15:39:56.994Z,27.90
2018-08-20T15:42:25.572Z,27.90
2018-08-20T15:44:54.119Z,27.90
2018-08-20T15:47:22.629Z,27.80
2018-08-20T15:49:51.195Z,27.80
2018-08-20T15:52:19.887Z,27.70
2018-08-20T15:54:48.379Z,27.60
2018-08-20T15:57:16.976Z,27.50
2018-08-20T15:59:45.748Z,27.40
2018-08-20T16:02:14.457Z,27.30
2018-08-20T16:04:43.164Z,27.30
2018-08-20T16:07:12.013Z,27.20
2018-08-20T16:09:40.545Z,27.20
2018-08-20T16:12:09.106Z,27.10
2018-08-20T16:14:37.598Z,27.10
2018-08-20T16:17:06.168Z,27.20
2018-08-20T16:19:34.682Z,27.20
2018-08-20T16:22:03.645Z,27.30
2018-08-20T16:24:32.159Z,27.30
2018-08-20T16:27:00.814Z,27.20
2018-08-20T16:29:29.472Z,27.20
2018-08-20T16:31:58.053Z,27.20
2018-08-20T16:34:26.602Z,27.30
2018-08-20T16:36:55.216Z,27.30
2018-08-20T16:39:23.917Z,27.20
2018-08-20T16:41:52.397Z,27.30
2018-08-20T16:44:20.935Z,27.30
2018-08-20T16:46:49.447Z,27.20
2018-08-20T16:49:18.233Z,27.20
2018-08-20T16:51:47.425Z,27.10
2018-08-20T16:54:15.969Z,27.00
2018-08-20T16:56:45.094Z,27.00
2018-08-20T16:59:13.829Z,26.90
2018-08-20T17:01:42.341Z,26.80
2018-08-20T17:04:27.551Z,26.80
2018-08-20T17:06:57.421Z,26.70
2018-08-20T17:09:26.088Z,26.70
2018-08-20T17:11:55.734Z,26.60
2018-08-20T17:14:24.492Z,26.60
2018-08-20T17:16:53.327Z,26.60
2018-08-20T17:19:22.041Z,26.50
2018-08-20T17:21:50.695Z,26.50
2018-08-20T17:24:25.778Z,26.40
2018-08-20T17:26:54.519Z,26.40
2018-08-20T17:29:23.374Z,26.30
2018-08-20T17:31:52.424Z,26.20
2018-08-20T17:34:21.533Z,26.20
2018-08-20T17:36:52.006Z,26.10
2018-08-20T17:39:20.990Z,26.10
2018-08-20T17:41:49.697Z,26.10
2018-08-20T17:44:20.599Z,26.00
2018-08-20T17:46:49.168Z,26.00
2018-08-20T17:49:23.145Z,25.90
2018-08-20T17:51:51.850Z,25.90
2018-08-20T17:54:20.498Z,25.90
2018-08-20T17:56:49.103Z,25.90
2018-08-20T17:59:17.954Z,25.80
2018-08-20T18:01:46.515Z,25.80
2018-08-20T18:04:15.192Z,25.80
2018-08-20T18:06:52.595Z,25.70
2018-08-20T18:09:21.173Z,25.70
2018-08-20T18:11:54.157Z,25.70
2018-08-20T18:14:24.032Z,25.60
2018-08-20T18:16:52.730Z,25.60
2018-08-20T18:19:21.289Z,25.50
2018-08-20T18:21:50.096Z,25.50
2018-08-20T18:24:20.043Z,25.50
2018-08-20T18:26:50.992Z,25.40
2018-08-20T18:29:19.525Z,25.40
2018-08-20T18:31:59.421Z,25.30
2018-08-20T18:34:27.949Z,25.30
2018-08-20T18:36:56.535Z,25.20
2018-08-20T18:39:25.099Z,25.20
2018-08-20T18:42:01.932Z,25.10
2018-08-20T18:44:31.318Z,25.10
2018-08-20T18:46:59.920Z,25.10
2018-08-20T18:49:28.551Z,25.00
2018-08-20T18:52:07.456Z,25.00
2018-08-20T18:54:37.739Z,25.00
2018-08-20T18:57:06.906Z,25.00
2018-08-20T18:59:37.449Z,25.00
2018-08-20T19:02:07.308Z,24.90
2018-08-20T19:04:41.496Z,24.90
2018-08-20T19:07:11.538Z,24.90
2018-08-20T19:09:41.207Z,24.90
2018-08-20T19:12:10.551Z,24.80
2018-08-20T19:14:39.209Z,24.80
2018-08-20T19:17:18.297Z,24.70
2018-08-20T19:19:49.295Z,24.60
2018-08-20T19:22:23.389Z,24.60
2018-08-20T19:24:52.230Z,24.50
2018-08-20T19:27:20.857Z,24.50
2018-08-20T19:29:49.622Z,24.50
2018-08-20T19:32:18.215Z,24.50
2018-08-20T19:34:47.003Z,24.50
2018-08-20T19:37:15.602Z,24.50
2018-08-20T19:39:44.226Z,24.50
2018-08-20T19:42:19.632Z,24.50
2018-08-20T19:44:48.279Z,24.50
2018-08-20T19:47:16.976Z,24.50
2018-08-20T19:49:45.770Z,24.50
2018-08-20T19:52:14.498Z,24.50
2018-08-20T19:54:43.071Z,24.50
2018-08-20T19:57:11.618Z,24.50
2018-08-20T19:59:40.792Z,24.50
2018-08-20T20:02:11.583Z,24.50
2018-08-20T20:04:40.473Z,24.50
2018-08-20T20:07:09.425Z,24.50
2018-08-20T20:09:38.379Z,24.50
2018-08-20T20:12:07.239Z,24.50
2018-08-20T20:14:43.064Z,24.50
2018-08-20T20:17:11.947Z,24.50
2018-08-20T20:19:40.488Z,24.50
2018-08-20T20:22:16.488Z,24.40
2018-08-20T20:24:45.200Z,24.50
2018-08-20T20:27:13.772Z,24.40
2018-08-20T20:29:42.436Z,24.40
2018-08-20T20:32:11.032Z,24.40
2018-08-20T20:34:39.634Z,24.40
2018-08-20T20:37:08.343Z,24.30
2018-08-20T20:39:40.212Z,24.30
2018-08-20T20:42:08.988Z,24.30
2018-08-20T20:44:38.325Z,24.20
2018-08-20T20:47:07.301Z,24.20
2018-08-20T20:49:35.998Z,24.20
2018-08-20T20:52:04.562Z,24.20
2018-08-20T20:54:33.134Z,24.20
2018-08-20T20:57:01.636Z,24.20
2018-08-20T20:59:30.561Z,24.10
2018-08-20T21:01:59.158Z,24.10
2018-08-20T21:04:27.891Z,24.10
2018-08-20T21:06:56.427Z,24.10
2018-08-20T21:09:25.269Z,24.10
2018-08-20T21:11:53.929Z,24.10
2018-08-20T21:14:22.490Z,24.10
2018-08-20T21:16:51.072Z,24.00
2018-08-20T21:19:19.636Z,24.00
2018-08-20T21:21:48.222Z,24.00
2018-08-20T21:24:16.723Z,24.00
2018-08-20T21:26:45.270Z,24.00
2018-08-20T21:29:13.756Z,24.00
2018-08-20T21:31:47.692Z,24.00
2018-08-20T21:34:16.223Z,24.00
2018-08-20T21:36:44.771Z,24.00
2018-08-20T21:39:13.262Z,24.00
2018-08-20T21:41:41.819Z,23.90
2018-08-20T21:44:10.371Z,23.90
2018-08-20T21:46:39.030Z,23.90
2018-08-20T21:49:07.610Z,23.90
2018-08-20T21:51:42.218Z,23.90
2018-08-20T21:54:10.732Z,23.90
2018-08-20T21:56:49.621Z,23.90
2018-08-20T21:59:18.837Z,23.90
2018-08-20T22:01:47.433Z,23.90
2018-08-20T22:04:18.280Z,23.90
2018-08-20T22:06:47.402Z,23.90
2018-08-20T22:09:15.890Z,23.80
2018-08-20T22:11:44.499Z,23.90
2018-08-20T22:14:13.026Z,23.90
2018-08-20T22:16:41.581Z,23.80
2018-08-20T22:19:10.098Z,23.80
2018-08-20T22:21:38.661Z,23.80
2018-08-20T22:24:07.162Z,23.70
2018-08-20T22:26:39.287Z,23.80
2018-08-20T22:29:07.983Z,23.70
2018-08-20T22:31:37.321Z,23.70
2018-08-20T22:34:06.374Z,23.60
2018-08-20T22:36:34.931Z,23.60
2018-08-20T22:39:05.175Z,23.60
2018-08-20T22:41:33.695Z,23.60
2018-08-20T22:44:02.414Z,23.60
2018-08-20T22:46:31.223Z,23.50
2018-08-20T22:49:00.746Z,23.50
2018-08-20T22:51:30.470Z,23.50
2018-08-20T22:54:00.679Z,23.50
2018-08-20T22:56:33.423Z,23.50
2018-08-20T22:59:06.373Z,23.50
2018-08-20T23:01:34.989Z,23.50
2018-08-20T23:04:03.681Z,23.50
2018-08-20T23:06:32.220Z,23.50
2018-08-20T23:09:14.946Z,23.50
2018-08-20T23:11:43.545Z,23.50
2018-08-20T23:14:12.993Z,23.50
2018-08-20T23:16:41.895Z,23.40
2018-08-20T23:19:10.974Z,23.40
2018-08-20T23:21:42.947Z,23.40
2018-08-20T23:24:12.469Z,23.50
2018-08-20T23:26:41.682Z,23.50
2018-08-20T23:29:10.620Z,23.40
2018-08-20T23:31:39.763Z,23.40
2018-08-20T23:34:10.760Z,23.40
2018-08-20T23:36:39.974Z,23.40
2018-08-20T23:39:09.967Z,23.40
2018-08-20T23:41:38.815Z,23.40
2018-08-20T23:44:07.575Z,23.40
2018-08-20T23:46:39.671Z,23.40
2018-08-20T23:49:08.250Z,23.30
2018-08-20T23:51:36.833Z,23.30
2018-08-20T23:54:05.604Z,23.40
2018-08-20T23:56:34.236Z,23.40
2018-08-20T23:59:02.771Z,23.40
